createdAt,value
2018-12-07T00:00:36.100Z,78.08
2018-12-07T00:01:35.990Z,78.56
2018-12-07T00:02:35.889Z,78.27
2018-12-07T00:03:35.790Z,78.17
2018-12-07T00:04:35.680Z,78.27
2018-12-07T00:05:35.577Z,78.56
2018-12-07T00:06:35.478Z,78.65
2018-12-07T00:07:35.378Z,78.65
2018-12-07T00:08:37.111Z,78.65
2018-12-07T00:09:35.167Z,78.85
2018-12-07T00:10:35.069Z,79.41
2018-12-07T00:11:34.957Z,79.41
2018-12-07T00:12:34.856Z,79.41
2018-12-07T00:13:34.757Z,79.99
2018-12-07T00:14:34.732Z,79.41
2018-12-07T00:15:34.545Z,79.13
2018-12-07T00:16:34.447Z,79.89
2018-12-07T00:17:34.347Z,79.80
2018-12-07T00:18:34.234Z,79.99
2018-12-07T00:19:34.136Z,79.27
2018-12-07T00:20:34.035Z,79.22
2018-12-07T00:21:33.926Z,79.17
2018-12-07T00:22:33.825Z,79.36
2018-12-07T00:23:33.726Z,79.27
2018-12-07T00:24:33.614Z,80.02
2018-12-07T00:25:33.516Z,79.36
2018-12-07T00:26:33.414Z,79.46
2018-12-07T00:27:33.315Z,79.13
2018-12-07T00:28:33.209Z,79.07
2018-12-07T00:29:33.103Z,79.83
2018-12-07T00:30:33.003Z,80.02
2018-12-07T00:31:32.906Z,80.41
2018-12-07T00:32:32.793Z,80.12
2018-12-07T00:33:32.695Z,79.83
2018-12-07T00:34:32.593Z,79.83
2018-12-07T00:35:32.482Z,79.55
2018-12-07T00:36:32.383Z,80.60
2018-12-07T00:37:32.283Z,80.31
2018-12-07T00:38:32.186Z,80.31
2018-12-07T00:39:32.071Z,80.31
2018-12-07T00:40:31.972Z,80.31
2018-12-07T00:41:31.872Z,80.41
2018-12-07T00:42:31.762Z,81.17
2018-12-07T00:43:31.662Z,80.79
2018-12-07T00:44:31.562Z,81.07
2018-12-07T00:45:31.463Z,81.07
2018-12-07T00:46:31.350Z,81.07
2018-12-07T00:47:31.251Z,80.22
2018-12-07T00:48:31.152Z,80.31
2018-12-07T00:49:31.051Z,80.50
2018-12-07T00:50:30.940Z,81.26
2018-12-07T00:51:30.841Z,80.88
2018-12-07T00:52:30.732Z,81.17
2018-12-07T00:53:30.629Z,81.17
2018-12-07T00:54:30.536Z,80.88
2018-12-07T00:55:30.430Z,80.98
2018-12-07T00:56:30.332Z,81.07
2018-12-07T00:57:30.221Z,80.88
2018-12-07T00:58:30.120Z,82.50
2018-12-07T00:59:30.021Z,82.03
2018-12-07T01:00:29.909Z,82.12
2018-12-07T01:01:29.812Z,81.93
2018-12-07T01:02:29.709Z,81.84
2018-12-07T01:03:29.609Z,82.03
2018-12-07T01:04:29.498Z,82.03
2018-12-07T01:05:29.399Z,81.55
2018-12-07T01:06:29.300Z,81.55
2018-12-07T01:07:29.200Z,81.65
2018-12-07T01:08:29.152Z,82.03
2018-12-07T01:09:28.988Z,81.84
2018-12-07T01:10:28.889Z,82.03
2018-12-07T01:11:28.789Z,82.60
2018-12-07T01:12:28.678Z,82.50
2018-12-07T01:13:28.579Z,82.60
2018-12-07T01:14:28.480Z,82.41
2018-12-07T01:15:28.368Z,82.12
2018-12-07T01:16:28.267Z,82.60
2018-12-07T01:17:28.168Z,82.31
2018-12-07T01:18:28.072Z,82.41
2018-12-07T01:19:27.958Z,82.60
2018-12-07T01:20:28.112Z,82.89
2018-12-07T01:21:27.759Z,82.12
2018-12-07T01:22:27.659Z,83.36
2018-12-07T01:23:27.546Z,83.74
2018-12-07T01:24:27.460Z,83.55
2018-12-07T01:25:27.360Z,83.45
2018-12-07T01:26:27.262Z,83.55
2018-12-07T01:27:27.136Z,83.45
2018-12-07T01:28:27.037Z,83.36
2018-12-07T01:29:26.938Z,83.36
2018-12-07T01:30:26.826Z,83.17
2018-12-07T01:31:26.724Z,83.45
2018-12-07T01:32:26.626Z,83.74
2018-12-07T01:33:26.526Z,84.22
2018-12-07T01:34:26.416Z,83.74
2018-12-07T01:35:26.316Z,83.65
2018-12-07T01:36:26.219Z,83.84
2018-12-07T01:37:26.117Z,83.36
2018-12-07T01:38:26.066Z,83.36
2018-12-07T01:39:25.905Z,83.26
2018-12-07T01:40:26.105Z,83.21
2018-12-07T01:41:25.709Z,84.12
2018-12-07T01:42:25.595Z,84.16
2018-12-07T01:43:25.496Z,83.84
2018-12-07T01:44:25.396Z,83.97
2018-12-07T01:45:25.284Z,83.88
2018-12-07T01:46:25.186Z,84.16
2018-12-07T01:47:25.084Z,84.07
2018-12-07T01:48:24.987Z,83.78
2018-12-07T01:49:24.874Z,83.69
2018-12-07T01:50:24.775Z,82.35
2018-12-07T01:51:24.676Z,80.26
2018-12-07T01:52:24.575Z,79.36
2018-12-07T01:53:24.463Z,78.22
2018-12-07T01:54:24.364Z,77.74
2018-12-07T01:55:24.263Z,76.59
2018-12-07T01:56:24.164Z,76.03
2018-12-07T01:57:24.054Z,76.03
2018-12-07T01:58:23.954Z,74.60
2018-12-07T01:59:23.854Z,75.07
2018-12-07T02:00:23.755Z,74.60
2018-12-07T02:01:23.642Z,74.60
2018-12-07T02:02:23.542Z,73.93
2018-12-07T02:03:23.442Z,74.21
2018-12-07T02:04:23.335Z,74.02
2018-12-07T02:05:23.233Z,73.93
2018-12-07T02:06:23.134Z,73.55
2018-12-07T02:07:23.037Z,73.65
2018-12-07T02:08:22.921Z,73.45
2018-12-07T02:09:22.821Z,74.21
2018-12-07T02:10:22.723Z,73.26
2018-12-07T02:11:22.635Z,73.93
2018-12-07T02:12:22.511Z,73.74
2018-12-07T02:13:22.412Z,74.02
2018-12-07T02:14:22.312Z,74.31
2018-12-07T02:15:22.201Z,74.40
2018-12-07T02:16:22.101Z,73.93
2018-12-07T02:17:22.010Z,73.65
2018-12-07T02:18:21.902Z,73.65
2018-12-07T02:19:21.790Z,74.21
2018-12-07T02:20:21.691Z,74.02
2018-12-07T02:21:21.591Z,74.02
2018-12-07T02:22:21.491Z,74.31
2018-12-07T02:23:21.380Z,74.69
2018-12-07T02:24:21.293Z,74.31
2018-12-07T02:25:21.193Z,74.40
2018-12-07T02:26:21.069Z,74.21
2018-12-07T02:27:20.970Z,74.21
2018-12-07T02:28:20.874Z,74.31
2018-12-07T02:29:20.771Z,74.21
2018-12-07T02:30:20.659Z,74.79
2018-12-07T02:31:20.558Z,74.69
2018-12-07T02:32:20.460Z,75.74
2018-12-07T02:33:20.360Z,75.93
2018-12-07T02:34:20.249Z,75.16
2018-12-07T02:35:20.150Z,75.26
2018-12-07T02:36:20.050Z,74.60
2018-12-07T02:37:19.938Z,74.31
2018-12-07T02:38:19.838Z,74.02
2018-12-07T02:39:19.740Z,74.60
2018-12-07T02:40:19.989Z,73.93
2018-12-07T02:41:19.528Z,73.83
2018-12-07T02:42:19.429Z,73.83
2018-12-07T02:43:19.330Z,72.97
2018-12-07T02:44:19.217Z,73.07
2018-12-07T02:45:19.116Z,72.41
2018-12-07T02:46:19.017Z,72.41
2018-12-07T02:47:18.918Z,71.93
2018-12-07T02:48:18.810Z,71.36
2018-12-07T02:49:18.711Z,70.59
2018-12-07T02:50:18.610Z,70.78
2018-12-07T02:51:18.516Z,70.59
2018-12-07T02:52:18.396Z,69.54
2018-12-07T02:53:18.296Z,69.54
2018-12-07T02:54:18.198Z,69.54
2018-12-07T02:55:18.085Z,69.07
2018-12-07T02:56:17.987Z,69.26
2018-12-07T02:57:17.886Z,69.17
2018-12-07T02:58:17.776Z,68.78
2018-12-07T02:59:17.676Z,68.30
2018-12-07T03:00:17.575Z,68.59
2018-12-07T03:01:17.475Z,68.30
2018-12-07T03:02:17.364Z,68.40
2018-12-07T03:03:17.265Z,68.40
2018-12-07T03:04:17.167Z,67.93
2018-12-07T03:05:17.052Z,68.21
2018-12-07T03:06:16.955Z,68.21
2018-12-07T03:07:16.853Z,67.74
2018-12-07T03:08:16.744Z,67.83
2018-12-07T03:09:16.644Z,68.12
2018-12-07T03:10:16.545Z,67.45
2018-12-07T03:11:16.432Z,67.35
2018-12-07T03:12:16.331Z,67.55
2018-12-07T03:13:16.231Z,67.45
2018-12-07T03:14:16.135Z,67.55
2018-12-07T03:15:16.021Z,67.45
2018-12-07T03:16:15.925Z,67.64
2018-12-07T03:17:15.823Z,67.74
2018-12-07T03:18:15.710Z,67.74
2018-12-07T03:19:15.610Z,67.83
2018-12-07T03:20:15.811Z,67.45
2018-12-07T03:21:15.400Z,67.55
2018-12-07T03:22:15.301Z,67.45
2018-12-07T03:23:15.202Z,67.64
2018-12-07T03:24:15.089Z,67.93
2018-12-07T03:25:14.994Z,67.64
2018-12-07T03:26:14.890Z,67.83
2018-12-07T03:27:14.792Z,67.83
2018-12-07T03:28:14.680Z,67.93
2018-12-07T03:29:14.581Z,67.83
2018-12-07T03:30:14.480Z,67.64
2018-12-07T03:31:14.390Z,67.64
2018-12-07T03:32:14.274Z,67.93
2018-12-07T03:33:14.169Z,67.93
2018-12-07T03:34:14.065Z,67.83
2018-12-07T03:35:13.959Z,67.93
2018-12-07T03:36:13.858Z,67.74
2018-12-07T03:37:13.747Z,67.93
2018-12-07T03:38:13.646Z,67.74
2018-12-07T03:39:13.547Z,67.74
2018-12-07T03:40:13.448Z,68.02
2018-12-07T03:41:13.335Z,67.93
2018-12-07T03:42:13.236Z,67.74
2018-12-07T03:43:13.138Z,67.55
2018-12-07T03:44:13.025Z,67.55
2018-12-07T03:45:12.924Z,67.74
2018-12-07T03:46:12.825Z,67.64
2018-12-07T03:47:12.726Z,67.74
2018-12-07T03:48:12.615Z,67.74
2018-12-07T03:49:12.515Z,67.64
2018-12-07T03:50:12.416Z,67.64
2018-12-07T03:51:12.303Z,67.64
2018-12-07T03:52:12.203Z,67.55
2018-12-07T03:53:12.104Z,67.83
2018-12-07T03:54:11.993Z,67.74
2018-12-07T03:55:11.901Z,67.74
2018-12-07T03:56:11.794Z,67.55
2018-12-07T03:57:11.684Z,67.64
2018-12-07T03:58:11.582Z,67.83
2018-12-07T03:59:11.487Z,67.74
2018-12-07T04:00:11.384Z,67.74
2018-12-07T04:01:11.272Z,68.30
2018-12-07T04:02:11.172Z,68.30
2018-12-07T04:03:11.073Z,68.12
2018-12-07T04:04:10.962Z,68.12
2018-12-07T04:05:10.863Z,68.12
2018-12-07T04:06:10.761Z,68.21
2018-12-07T04:07:10.663Z,68.50
2018-12-07T04:08:10.561Z,68.50
2018-12-07T04:09:10.451Z,68.50
2018-12-07T04:10:10.352Z,68.50
2018-12-07T04:11:10.240Z,68.21
2018-12-07T04:12:10.140Z,68.40
2018-12-07T04:13:10.044Z,68.78
2018-12-07T04:14:09.942Z,68.50
2018-12-07T04:15:09.830Z,68.78
2018-12-07T04:16:09.730Z,68.69
2018-12-07T04:17:09.634Z,68.50
2018-12-07T04:18:09.529Z,68.50
2018-12-07T04:19:09.420Z,68.40
2018-12-07T04:20:09.321Z,68.40
2018-12-07T04:21:09.221Z,68.59
2018-12-07T04:22:09.111Z,68.69
2018-12-07T04:23:09.010Z,68.50
2018-12-07T04:24:08.910Z,68.40
2018-12-07T04:25:08.798Z,68.59
2018-12-07T04:26:08.695Z,68.59
2018-12-07T04:27:08.599Z,68.40
2018-12-07T04:28:08.510Z,68.50
2018-12-07T04:29:08.388Z,68.40
2018-12-07T04:30:08.289Z,68.40
2018-12-07T04:31:08.190Z,68.40
2018-12-07T04:32:08.077Z,68.40
2018-12-07T04:33:07.977Z,68.40
2018-12-07T04:34:07.955Z,68.30
2018-12-07T04:35:08.085Z,68.50
2018-12-07T04:36:07.869Z,68.40
2018-12-07T04:37:07.572Z,68.40
2018-12-07T04:38:07.469Z,68.50
2018-12-07T04:39:07.358Z,68.30
2018-12-07T04:40:07.259Z,68.50
2018-12-07T04:41:07.157Z,68.50
2018-12-07T04:42:07.058Z,68.40
2018-12-07T04:43:06.947Z,68.40
2018-12-07T04:44:06.848Z,68.40
2018-12-07T04:45:06.749Z,68.40
2018-12-07T04:46:06.636Z,68.40
2018-12-07T04:47:06.536Z,68.40
2018-12-07T04:48:06.437Z,68.50
2018-12-07T04:49:06.336Z,68.40
2018-12-07T04:50:06.229Z,68.40
2018-12-07T04:51:06.126Z,68.30
2018-12-07T04:52:06.027Z,68.59
2018-12-07T04:53:05.921Z,68.40
2018-12-07T04:54:05.821Z,68.40
2018-12-07T04:55:05.715Z,68.50
2018-12-07T04:56:05.629Z,68.50
2018-12-07T04:57:05.505Z,68.40
2018-12-07T04:58:05.405Z,68.30
2018-12-07T04:59:05.306Z,68.50
2018-12-07T05:00:05.195Z,68.40
2018-12-07T05:01:05.103Z,68.40
2018-12-07T05:02:04.995Z,68.40
2018-12-07T05:03:04.900Z,68.30
2018-12-07T05:04:04.785Z,68.40
2018-12-07T05:05:04.686Z,68.50
2018-12-07T05:06:04.591Z,68.30
2018-12-07T05:07:04.486Z,68.30
2018-12-07T05:08:04.373Z,68.40
2018-12-07T05:09:04.274Z,68.59
2018-12-07T05:10:04.174Z,68.40
2018-12-07T05:11:04.063Z,68.40
2018-12-07T05:12:03.963Z,68.40
2018-12-07T05:13:03.863Z,68.69
2018-12-07T05:14:03.764Z,68.53
2018-12-07T05:15:03.652Z,68.40
2018-12-07T05:16:03.553Z,68.40
2018-12-07T05:17:03.455Z,68.40
2018-12-07T05:18:03.343Z,68.40
2018-12-07T05:19:03.243Z,68.21
2018-12-07T05:20:03.155Z,68.12
2018-12-07T05:21:03.047Z,68.21
2018-12-07T05:22:02.934Z,68.69
2018-12-07T05:23:02.831Z,68.59
2018-12-07T05:24:02.731Z,68.21
2018-12-07T05:25:02.624Z,68.21
2018-12-07T05:26:02.522Z,68.59
2018-12-07T05:27:02.422Z,68.50
2018-12-07T05:28:02.322Z,68.53
2018-12-07T05:29:02.209Z,68.50
2018-12-07T05:30:02.110Z,68.78
2018-12-07T05:31:02.011Z,68.98
2018-12-07T05:32:01.912Z,68.69
2018-12-07T05:33:01.800Z,69.07
2018-12-07T05:34:01.700Z,69.07
2018-12-07T05:35:01.602Z,68.88
2018-12-07T05:36:01.489Z,68.91
2018-12-07T05:37:01.389Z,68.50
2018-12-07T05:38:01.299Z,68.50
2018-12-07T05:39:01.192Z,68.78
2018-12-07T05:40:01.083Z,68.82
2018-12-07T05:41:00.987Z,68.59
2018-12-07T05:42:00.880Z,68.72
2018-12-07T05:43:00.768Z,68.78
2018-12-07T05:44:00.672Z,69.58
2018-12-07T05:45:00.571Z,69.45
2018-12-07T05:46:00.472Z,69.54
2018-12-07T05:47:00.358Z,69.58
2018-12-07T05:48:00.258Z,69.58
2018-12-07T05:49:00.159Z,69.48
2018-12-07T05:50:00.053Z,69.20
2018-12-07T05:50:59.947Z,69.39
2018-12-07T05:51:59.847Z,69.48
2018-12-07T05:52:59.748Z,69.01
2018-12-07T05:53:59.636Z,69.10
2018-12-07T05:54:59.537Z,69.20
2018-12-07T05:55:59.438Z,69.20
2018-12-07T05:56:59.341Z,69.20
2018-12-07T05:57:59.239Z,69.20
2018-12-07T05:58:59.139Z,69.20
2018-12-07T05:59:59.029Z,69.48
2018-12-07T06:00:58.917Z,69.39
2018-12-07T06:01:58.817Z,69.58
2018-12-07T06:02:58.720Z,69.10
2018-12-07T06:03:58.619Z,69.39
2018-12-07T06:04:58.505Z,69.68
2018-12-07T06:05:58.408Z,69.68
2018-12-07T06:06:58.306Z,69.58
2018-12-07T06:07:58.206Z,69.87
2018-12-07T06:08:58.094Z,69.68
2018-12-07T06:09:58.041Z,69.77
2018-12-07T06:10:57.895Z,69.58
2018-12-07T06:11:57.784Z,69.48
2018-12-07T06:12:57.686Z,69.39
2018-12-07T06:13:57.585Z,69.39
2018-12-07T06:14:57.485Z,69.48
2018-12-07T06:15:57.374Z,69.58
2018-12-07T06:16:57.273Z,69.68
2018-12-07T06:17:57.175Z,69.39
2018-12-07T06:18:57.077Z,69.68
2018-12-07T06:19:56.962Z,69.48
2018-12-07T06:20:56.863Z,69.58
2018-12-07T06:21:56.763Z,69.68
2018-12-07T06:22:56.664Z,69.68
2018-12-07T06:23:56.553Z,69.68
2018-12-07T06:24:56.453Z,69.48
2018-12-07T06:25:56.354Z,69.48
2018-12-07T06:26:56.254Z,69.58
2018-12-07T06:27:56.142Z,69.87
2018-12-07T06:28:56.043Z,69.77
2018-12-07T06:29:55.948Z,69.68
2018-12-07T06:30:55.847Z,69.68
2018-12-07T06:31:55.732Z,69.96
2018-12-07T06:32:56.505Z,70.06
2018-12-07T06:33:55.533Z,70.15
2018-12-07T06:34:55.421Z,70.15
2018-12-07T06:35:55.321Z,69.77
2018-12-07T06:36:55.222Z,69.58
2018-12-07T06:37:55.121Z,69.96
2018-12-07T06:38:55.012Z,70.34
2018-12-07T06:39:54.913Z,70.06
2018-12-07T06:40:54.812Z,70.06
2018-12-07T06:41:54.713Z,70.15
2018-12-07T06:42:54.600Z,70.25
2018-12-07T06:43:54.500Z,70.15
2018-12-07T06:44:54.407Z,69.96
2018-12-07T06:45:54.316Z,70.06
2018-12-07T06:46:54.190Z,70.15
2018-12-07T06:47:54.091Z,69.96
2018-12-07T06:48:53.992Z,69.96
2018-12-07T06:49:53.880Z,70.15
2018-12-07T06:50:53.785Z,69.96
2018-12-07T06:51:53.679Z,69.87
2018-12-07T06:52:53.583Z,69.87
2018-12-07T06:53:53.469Z,69.87
2018-12-07T06:54:53.379Z,70.06
2018-12-07T06:55:53.270Z,69.96
2018-12-07T06:56:53.170Z,69.96
2018-12-07T06:57:53.059Z,69.68
2018-12-07T06:58:52.972Z,69.77
2018-12-07T06:59:53.122Z,70.06
2018-12-07T07:00:52.761Z,70.06
2018-12-07T07:01:52.648Z,69.87
2018-12-07T07:02:52.549Z,69.68
2018-12-07T07:03:52.452Z,69.87
2018-12-07T07:04:52.350Z,69.96
2018-12-07T07:05:52.240Z,69.77
2018-12-07T07:06:52.138Z,69.77
2018-12-07T07:07:52.040Z,69.87
2018-12-07T07:08:51.939Z,69.87
2018-12-07T07:09:51.829Z,69.58
2018-12-07T07:10:51.728Z,69.96
2018-12-07T07:11:51.630Z,69.87
2018-12-07T07:12:51.530Z,69.77
2018-12-07T07:13:51.418Z,70.06
2018-12-07T07:14:51.317Z,69.96
2018-12-07T07:15:51.218Z,69.87
2018-12-07T07:16:51.118Z,70.00
2018-12-07T07:17:51.008Z,69.96
2018-12-07T07:18:50.907Z,70.25
2018-12-07T07:19:50.809Z,70.15
2018-12-07T07:20:50.709Z,70.34
2018-12-07T07:21:50.598Z,69.96
2018-12-07T07:22:50.506Z,69.96
2018-12-07T07:23:50.399Z,70.15
2018-12-07T07:24:50.298Z,70.25
2018-12-07T07:25:50.189Z,70.15
2018-12-07T07:26:50.090Z,70.15
2018-12-07T07:27:49.989Z,70.15
2018-12-07T07:28:49.889Z,70.15
2018-12-07T07:29:49.778Z,69.87
2018-12-07T07:30:49.678Z,70.15
2018-12-07T07:31:49.577Z,70.15
2018-12-07T07:32:49.477Z,70.15
2018-12-07T07:33:49.377Z,70.15
2018-12-07T07:34:49.266Z,70.28
2018-12-07T07:35:49.166Z,70.28
2018-12-07T07:36:49.067Z,70.38
2018-12-07T07:37:48.968Z,70.15
2018-12-07T07:38:48.856Z,70.44
2018-12-07T07:39:48.756Z,70.47
2018-12-07T07:40:48.658Z,70.09
2018-12-07T07:41:48.558Z,70.53
2018-12-07T07:42:48.457Z,70.34
2018-12-07T07:43:48.348Z,70.15
2018-12-07T07:44:48.247Z,70.53
2018-12-07T07:45:48.148Z,70.25
2018-12-07T07:46:48.060Z,70.28
2018-12-07T07:47:47.949Z,70.57
2018-12-07T07:48:47.851Z,70.67
2018-12-07T07:49:47.821Z,70.57
2018-12-07T07:50:47.638Z,70.19
2018-12-07T07:51:47.527Z,70.67
2018-12-07T07:52:47.428Z,70.57
2018-12-07T07:53:47.330Z,70.28
2018-12-07T07:54:47.228Z,70.47
2018-12-07T07:55:47.117Z,70.67
2018-12-07T07:56:47.016Z,70.47
2018-12-07T07:57:46.916Z,70.00
2018-12-07T07:58:46.818Z,70.67
2018-12-07T07:59:46.717Z,70.28
2018-12-07T08:00:46.614Z,70.38
2018-12-07T08:01:46.531Z,70.67
2018-12-07T08:02:46.408Z,70.00
2018-12-07T08:03:46.308Z,70.67
2018-12-07T08:04:46.290Z,70.67
2018-12-07T08:05:46.096Z,70.67
2018-12-07T08:06:45.996Z,70.19
2018-12-07T08:07:45.897Z,70.47
2018-12-07T08:08:45.798Z,70.19
2018-12-07T08:09:45.698Z,70.19
2018-12-07T08:10:45.587Z,69.90
2018-12-07T08:11:45.487Z,70.19
2018-12-07T08:12:45.387Z,70.28
2018-12-07T08:13:45.292Z,70.47
2018-12-07T08:14:45.193Z,70.28
2018-12-07T08:15:45.076Z,70.28
2018-12-07T08:16:44.977Z,69.90
2018-12-07T08:17:44.880Z,70.57
2018-12-07T08:18:44.778Z,70.57
2018-12-07T08:19:44.668Z,70.19
2018-12-07T08:20:44.570Z,70.00
2018-12-07T08:21:44.468Z,70.00
2018-12-07T08:22:44.369Z,70.00
2018-12-07T08:23:44.269Z,70.67
2018-12-07T08:24:44.158Z,70.28
2018-12-07T08:25:44.056Z,70.09
2018-12-07T08:26:43.960Z,70.19
2018-12-07T08:27:43.858Z,70.38
2018-12-07T08:28:43.758Z,70.57
2018-12-07T08:29:43.659Z,70.00
2018-12-07T08:30:43.548Z,69.90
2018-12-07T08:31:43.449Z,70.09
2018-12-07T08:32:43.350Z,70.57
2018-12-07T08:33:43.250Z,70.28
2018-12-07T08:34:43.150Z,70.28
2018-12-07T08:35:43.041Z,70.28
2018-12-07T08:36:42.938Z,70.38
2018-12-07T08:37:42.839Z,70.28
2018-12-07T08:38:42.739Z,69.84
2018-12-07T08:39:42.890Z,69.93
2018-12-07T08:40:42.531Z,70.22
2018-12-07T08:41:42.430Z,70.57
2018-12-07T08:42:42.329Z,70.09
2018-12-07T08:43:42.230Z,70.47
2018-12-07T08:44:42.130Z,70.51
2018-12-07T08:45:42.034Z,70.38
2018-12-07T08:46:41.919Z,70.51
2018-12-07T08:47:41.819Z,70.47
2018-12-07T08:48:41.776Z,70.22
2018-12-07T08:49:41.620Z,70.13
2018-12-07T08:50:41.524Z,69.74
2018-12-07T08:51:41.422Z,69.93
2018-12-07T08:52:41.313Z,70.03
2018-12-07T08:53:41.209Z,69.93
2018-12-07T08:54:41.111Z,69.84
2018-12-07T08:55:41.011Z,70.03
2018-12-07T08:56:40.913Z,69.56
2018-12-07T08:57:40.811Z,70.22
2018-12-07T08:58:40.700Z,69.84
2018-12-07T08:59:40.601Z,69.84
2018-12-07T09:00:40.501Z,69.84
2018-12-07T09:01:40.402Z,69.93
2018-12-07T09:02:40.302Z,70.22
2018-12-07T09:03:40.202Z,69.74
2018-12-07T09:04:40.092Z,70.70
2018-12-07T09:05:39.991Z,70.70
2018-12-07T09:06:39.892Z,70.98
2018-12-07T09:07:39.794Z,70.70
2018-12-07T09:08:39.695Z,71.08
2018-12-07T09:09:39.595Z,71.08
2018-12-07T09:10:39.482Z,70.79
2018-12-07T09:11:39.382Z,71.37
2018-12-07T09:12:39.284Z,71.27
2018-12-07T09:13:39.183Z,71.18
2018-12-07T09:14:39.084Z,71.08
2018-12-07T09:15:38.984Z,71.18
2018-12-07T09:16:38.885Z,71.84
2018-12-07T09:17:38.774Z,71.84
2018-12-07T09:18:38.677Z,71.84
2018-12-07T09:19:38.575Z,71.46
2018-12-07T09:20:38.475Z,71.84
2018-12-07T09:21:38.376Z,71.46
2018-12-07T09:22:38.280Z,71.56
2018-12-07T09:23:38.166Z,71.08
2018-12-07T09:24:38.065Z,71.56
2018-12-07T09:25:37.969Z,71.46
2018-12-07T09:26:37.866Z,71.94
2018-12-07T09:27:37.766Z,72.13
2018-12-07T09:28:37.668Z,72.42
2018-12-07T09:29:37.567Z,71.66
2018-12-07T09:30:37.458Z,72.51
2018-12-07T09:31:37.357Z,72.51
2018-12-07T09:32:37.258Z,72.61
2018-12-07T09:33:37.162Z,72.32
2018-12-07T09:34:37.059Z,72.51
2018-12-07T09:35:36.962Z,73.28
2018-12-07T09:36:36.859Z,73.56
2018-12-07T09:37:36.750Z,73.85
2018-12-07T09:38:36.647Z,74.13
2018-12-07T09:39:36.551Z,73.37
2018-12-07T09:40:36.448Z,73.47
2018-12-07T09:41:36.349Z,73.47
2018-12-07T09:42:36.251Z,73.75
2018-12-07T09:43:36.150Z,74.13
2018-12-07T09:44:36.056Z,73.66
2018-12-07T09:45:35.940Z,73.85
2018-12-07T09:46:35.840Z,73.75
2018-12-07T09:47:35.740Z,73.08
2018-12-07T09:48:35.646Z,73.75
2018-12-07T09:49:35.542Z,73.94
2018-12-07T09:50:35.444Z,73.94
2018-12-07T09:51:35.343Z,73.37
2018-12-07T09:52:35.231Z,73.18
2018-12-07T09:53:35.131Z,73.37
2018-12-07T09:54:35.112Z,73.94
2018-12-07T09:55:34.932Z,73.28
2018-12-07T09:56:34.832Z,73.18
2018-12-07T09:57:34.733Z,73.56
2018-12-07T09:58:34.634Z,73.28
2018-12-07T09:59:34.526Z,73.37
2018-12-07T10:00:34.430Z,73.18
2018-12-07T10:01:34.328Z,73.18
2018-12-07T10:02:34.226Z,73.08
2018-12-07T10:03:34.126Z,73.28
2018-12-07T10:04:34.027Z,73.22
2018-12-07T10:05:33.927Z,73.41
2018-12-07T10:06:33.827Z,73.85
2018-12-07T10:07:33.714Z,73.85
2018-12-07T10:08:33.614Z,73.85
2018-12-07T10:09:33.519Z,73.60
2018-12-07T10:10:33.417Z,73.79
2018-12-07T10:11:33.316Z,74.27
2018-12-07T10:12:33.234Z,73.79
2018-12-07T10:13:33.130Z,74.17
2018-12-07T10:14:33.019Z,73.69
2018-12-07T10:15:32.906Z,74.08
2018-12-07T10:16:32.808Z,74.17
2018-12-07T10:17:32.709Z,74.74
2018-12-07T10:18:32.608Z,75.13
2018-12-07T10:19:32.759Z,75.03
2018-12-07T10:20:32.409Z,74.65
2018-12-07T10:21:32.301Z,75.22
2018-12-07T10:22:32.198Z,75.60
2018-12-07T10:23:32.099Z,75.89
2018-12-07T10:24:31.999Z,76.18
2018-12-07T10:25:31.900Z,76.37
2018-12-07T10:26:31.800Z,76.75
2018-12-07T10:27:31.701Z,77.70
2018-12-07T10:28:31.601Z,77.03
2018-12-07T10:29:31.502Z,76.08
2018-12-07T10:30:31.490Z,76.37
2018-12-07T10:31:31.291Z,77.36
2018-12-07T10:32:31.191Z,76.98
2018-12-07T10:33:31.098Z,78.47
2018-12-07T10:34:30.994Z,78.56
2018-12-07T10:35:30.893Z,77.74
2018-12-07T10:36:30.794Z,77.74
2018-12-07T10:37:30.694Z,78.41
2018-12-07T10:38:30.596Z,78.03
2018-12-07T10:39:30.484Z,78.99
2018-12-07T10:40:30.384Z,78.99
2018-12-07T10:41:30.284Z,78.31
2018-12-07T10:42:30.184Z,79.27
2018-12-07T10:43:30.088Z,79.65
2018-12-07T10:44:29.985Z,78.99
2018-12-07T10:45:29.886Z,79.08
2018-12-07T10:46:29.786Z,79.56
2018-12-07T10:47:29.687Z,79.85
2018-12-07T10:48:29.587Z,79.08
2018-12-07T10:49:30.530Z,79.75
2018-12-07T10:50:29.391Z,80.41
2018-12-07T10:51:29.277Z,79.94
2018-12-07T10:52:29.178Z,79.65
2018-12-07T10:53:29.079Z,80.51
2018-12-07T10:54:29.453Z,80.04
2018-12-07T10:55:28.880Z,80.22
2018-12-07T10:56:28.780Z,80.51
2018-12-07T10:57:28.681Z,81.27
2018-12-07T10:58:28.581Z,80.41
2018-12-07T10:59:28.483Z,80.90
2018-12-07T11:00:28.382Z,81.66
2018-12-07T11:01:28.272Z,81.37
2018-12-07T11:02:28.171Z,82.14
2018-12-07T11:03:28.072Z,82.23
2018-12-07T11:04:27.972Z,82.08
2018-12-07T11:05:27.872Z,82.75
2018-12-07T11:06:27.773Z,82.65
2018-12-07T11:07:27.675Z,82.84
2018-12-07T11:08:27.573Z,83.67
2018-12-07T11:09:27.474Z,82.94
2018-12-07T11:10:27.375Z,82.94
2018-12-07T11:11:27.275Z,82.94
2018-12-07T11:12:27.176Z,83.61
2018-12-07T11:13:27.077Z,83.51
2018-12-07T11:14:26.977Z,83.70
2018-12-07T11:15:26.866Z,83.61
2018-12-07T11:16:26.768Z,83.33
2018-12-07T11:17:26.668Z,83.51
2018-12-07T11:18:26.569Z,82.94
2018-12-07T11:19:26.470Z,83.04
2018-12-07T11:20:26.370Z,83.70
2018-12-07T11:21:26.270Z,84.09
2018-12-07T11:22:26.171Z,82.94
2018-12-07T11:23:26.072Z,83.13
2018-12-07T11:24:25.971Z,82.37
2018-12-07T11:25:25.872Z,82.94
2018-12-07T11:26:25.776Z,84.47
2018-12-07T11:27:25.672Z,82.84
2018-12-07T11:28:25.573Z,83.13
2018-12-07T11:29:25.462Z,83.04
2018-12-07T11:30:25.362Z,82.46
2018-12-07T11:31:25.262Z,82.18
2018-12-07T11:32:25.162Z,82.42
2018-12-07T11:33:25.063Z,82.81
2018-12-07T11:34:24.964Z,82.23
2018-12-07T11:35:24.864Z,82.61
2018-12-07T11:36:24.768Z,81.76
2018-12-07T11:37:24.666Z,80.99
2018-12-07T11:38:24.565Z,80.70
2018-12-07T11:39:24.466Z,80.41
2018-12-07T11:40:24.373Z,79.75
2018-12-07T11:41:24.271Z,79.46
2018-12-07T11:42:24.170Z,78.03
2018-12-07T11:43:24.057Z,78.13
2018-12-07T11:44:23.957Z,78.70
2018-12-07T11:45:23.863Z,78.60
2018-12-07T11:46:23.759Z,77.84
2018-12-07T11:47:23.658Z,77.45
2018-12-07T11:48:23.560Z,77.55
2018-12-07T11:49:23.461Z,77.94
2018-12-07T11:50:23.361Z,77.84
2018-12-07T11:51:23.263Z,76.40
2018-12-07T11:52:23.163Z,76.21
2018-12-07T11:53:23.063Z,76.03
2018-12-07T11:54:22.963Z,75.93
2018-12-07T11:55:22.851Z,75.93
2018-12-07T11:56:22.751Z,75.16
2018-12-07T11:57:22.652Z,76.03
2018-12-07T11:58:22.552Z,75.45
2018-12-07T11:59:22.455Z,74.88
2018-12-07T12:00:22.354Z,74.78
2018-12-07T12:01:22.254Z,75.45
2018-12-07T12:02:26.254Z,74.88
2018-12-07T12:03:22.055Z,74.74
2018-12-07T12:04:21.944Z,74.93
2018-12-07T12:05:21.845Z,75.51
2018-12-07T12:06:21.747Z,74.55
2018-12-07T12:07:21.646Z,74.17
2018-12-07T12:08:21.549Z,74.74
2018-12-07T12:09:21.447Z,74.37
2018-12-07T12:10:21.348Z,73.88
2018-12-07T12:11:21.247Z,73.79
2018-12-07T12:12:21.138Z,73.41
2018-12-07T12:13:21.036Z,73.79
2018-12-07T12:14:20.937Z,73.32
2018-12-07T12:15:20.841Z,73.41
2018-12-07T12:16:20.738Z,73.41
2018-12-07T12:17:20.639Z,73.03
2018-12-07T12:18:20.539Z,72.64
2018-12-07T12:19:20.439Z,72.55
2018-12-07T12:20:20.340Z,72.74
2018-12-07T12:21:20.239Z,72.93
2018-12-07T12:22:20.141Z,72.83
2018-12-07T12:23:20.030Z,72.55
2018-12-07T12:24:19.930Z,72.55
2018-12-07T12:25:19.831Z,71.98
2018-12-07T12:26:19.731Z,72.07
2018-12-07T12:27:19.619Z,71.69
2018-12-07T12:28:19.520Z,71.31
2018-12-07T12:29:19.420Z,71.31
2018-12-07T12:30:19.320Z,71.41
2018-12-07T12:31:19.222Z,71.31
2018-12-07T12:32:19.135Z,71.02
2018-12-07T12:33:19.013Z,70.26
2018-12-07T12:34:18.912Z,70.64
2018-12-07T12:35:18.812Z,70.64
2018-12-07T12:36:18.713Z,70.36
2018-12-07T12:37:18.613Z,70.79
2018-12-07T12:38:18.514Z,70.22
2018-12-07T12:39:18.401Z,70.54
2018-12-07T12:40:18.302Z,69.78
2018-12-07T12:41:18.204Z,69.84
2018-12-07T12:42:18.102Z,70.36
2018-12-07T12:43:18.003Z,69.87
2018-12-07T12:44:17.903Z,69.49
2018-12-07T12:45:17.795Z,69.49
2018-12-07T12:46:17.693Z,69.59
2018-12-07T12:47:17.596Z,69.68
2018-12-07T12:48:17.494Z,69.49
2018-12-07T12:49:17.394Z,69.56
2018-12-07T12:50:17.283Z,69.56
2018-12-07T12:51:17.183Z,69.74